sensor_id;sensor_type;location;lat;lon;timestamp;P1;durP1;ratioP1;P2;durP2;ratioP2
46731;SDS011;32477;51.474;5.696;2024-03-02T00:00:05;3.53;;;0.98;;
46731;SDS011;32477;51.474;5.696;2024-03-02T00:02:46;2.42;;;0.75;;
46731;SDS011;32477;51.474;5.696;2024-03-02T00:05:13;2.63;;;0.90;;
46731;SDS011;32477;51.474;5.696;2024-03-02T00:07:43;2.40;;;0.90;;
46731;SDS011;32477;51.474;5.696;2024-03-02T00:10:39;1.70;;;0.88;;
46731;SDS011;32477;51.474;5.696;2024-03-02T00:13:05;6.60;;;1.02;;
46731;SDS011;32477;51.474;5.696;2024-03-02T00:18:14;5.72;;;0.90;;
46731;SDS011;32477;51.474;5.696;2024-03-02T00:20:44;1.63;;;0.75;;
46731;SDS011;32477;51.474;5.696;2024-03-02T00:23:12;1.98;;;0.90;;
46731;SDS011;32477;51.474;5.696;2024-03-02T00:25:41;2.58;;;0.90;;
46731;SDS011;32477;51.474;5.696;2024-03-02T00:30:52;3.80;;;1.20;;
46731;SDS011;32477;51.474;5.696;2024-03-02T00:35:51;2.80;;;1.20;;
46731;SDS011;32477;51.474;5.696;2024-03-02T00:38:18;2.47;;;1.05;;
46731;SDS011;32477;51.474;5.696;2024-03-02T00:40:44;2.72;;;0.82;;
46731;SDS011;32477;51.474;5.696;2024-03-02T00:45:54;0.40;;;0.30;;
46731;SDS011;32477;51.474;5.696;2024-03-02T00:48:20;0.60;;;0.45;;
46731;SDS011;32477;51.474;5.696;2024-03-02T00:51:03;0.55;;;0.38;;
46731;SDS011;32477;51.474;5.696;2024-03-02T00:53:32;1.02;;;0.35;;
46731;SDS011;32477;51.474;5.696;2024-03-02T00:55:58;0.10;;;0.10;;
46731;SDS011;32477;51.474;5.696;2024-03-02T00:58:24;0.30;;;0.25;;
46731;SDS011;32477;51.474;5.696;2024-03-02T01:00:50;0.40;;;0.30;;
46731;SDS011;32477;51.474;5.696;2024-03-02T01:03:16;3.67;;;0.38;;
46731;SDS011;32477;51.474;5.696;2024-03-02T01:05:41;0.40;;;0.40;;
46731;SDS011;32477;51.474;5.696;2024-03-02T01:08:08;0.35;;;0.28;;
46731;SDS011;32477;51.474;5.696;2024-03-02T01:10:36;0.88;;;0.40;;
46731;SDS011;32477;51.474;5.696;2024-03-02T01:13:02;3.53;;;0.30;;
46731;SDS011;32477;51.474;5.696;2024-03-02T01:15:28;0.38;;;0.20;;
46731;SDS011;32477;51.474;5.696;2024-03-02T01:17:53;3.72;;;0.43;;
46731;SDS011;32477;51.474;5.696;2024-03-02T01:20:19;0.73;;;0.47;;
46731;SDS011;32477;51.474;5.696;2024-03-02T01:22:45;1.17;;;0.40;;
46731;SDS011;32477;51.474;5.696;2024-03-02T01:25:10;1.70;;;0.30;;
46731;SDS011;32477;51.474;5.696;2024-03-02T01:27:36;0.55;;;0.38;;
46731;SDS011;32477;51.474;5.696;2024-03-02T01:30:01;2.42;;;0.38;;
46731;SDS011;32477;51.474;5.696;2024-03-02T01:32:27;0.17;;;0.17;;
46731;SDS011;32477;51.474;5.696;2024-03-02T01:34:53;0.68;;;0.40;;
46731;SDS011;32477;51.474;5.696;2024-03-02T01:37:18;3.05;;;0.30;;
46731;SDS011;32477;51.474;5.696;2024-03-02T01:39:44;0.43;;;0.30;;
46731;SDS011;32477;51.474;5.696;2024-03-02T01:42:09;1.20;;;0.57;;
46731;SDS011;32477;51.474;5.696;2024-03-02T01:44:36;2.72;;;0.32;;
46731;SDS011;32477;51.474;5.696;2024-03-02T01:47:01;1.00;;;0.28;;
46731;SDS011;32477;51.474;5.696;2024-03-02T01:49:27;2.20;;;0.30;;
46731;SDS011;32477;51.474;5.696;2024-03-02T01:51:53;0.30;;;0.30;;
46731;SDS011;32477;51.474;5.696;2024-03-02T01:54:18;0.47;;;0.40;;
46731;SDS011;32477;51.474;5.696;2024-03-02T01:56:44;0.73;;;0.20;;
46731;SDS011;32477;51.474;5.696;2024-03-02T01:59:10;0.40;;;0.20;;
46731;SDS011;32477;51.474;5.696;2024-03-02T02:01:36;1.23;;;0.50;;
46731;SDS011;32477;51.474;5.696;2024-03-02T02:04:01;0.20;;;0.20;;
46731;SDS011;32477;51.474;5.696;2024-03-02T02:06:27;0.47;;;0.30;;
46731;SDS011;32477;51.474;5.696;2024-03-02T02:08:53;0.40;;;0.20;;
46731;SDS011;32477;51.474;5.696;2024-03-02T02:11:18;1.10;;;0.47;;
46731;SDS011;32477;51.474;5.696;2024-03-02T02:13:44;0.30;;;0.20;;
46731;SDS011;32477;51.474;5.696;2024-03-02T02:16:10;0.47;;;0.30;;
46731;SDS011;32477;51.474;5.696;2024-03-02T02:18:35;1.38;;;0.32;;
46731;SDS011;32477;51.474;5.696;2024-03-02T02:21:02;0.98;;;0.30;;
46731;SDS011;32477;51.474;5.696;2024-03-02T02:23:28;0.30;;;0.30;;
46731;SDS011;32477;51.474;5.696;2024-03-02T02:25:54;0.93;;;0.40;;
46731;SDS011;32477;51.474;5.696;2024-03-02T02:28:20;0.20;;;0.20;;
46731;SDS011;32477;51.474;5.696;2024-03-02T02:30:45;0.70;;;0.50;;
46731;SDS011;32477;51.474;5.696;2024-03-02T02:33:11;0.22;;;0.22;;
46731;SDS011;32477;51.474;5.696;2024-03-02T02:35:37;0.47;;;0.43;;
46731;SDS011;32477;51.474;5.696;2024-03-02T02:38:02;0.38;;;0.20;;
46731;SDS011;32477;51.474;5.696;2024-03-02T02:40:29;0.43;;;0.28;;
46731;SDS011;32477;51.474;5.696;2024-03-02T02:42:55;0.88;;;0.43;;
46731;SDS011;32477;51.474;5.696;2024-03-02T02:45:22;0.60;;;0.30;;
46731;SDS011;32477;51.474;5.696;2024-03-02T02:47:48;0.88;;;0.30;;
46731;SDS011;32477;51.474;5.696;2024-03-02T02:50:13;2.78;;;0.30;;
46731;SDS011;32477;51.474;5.696;2024-03-02T02:52:40;0.60;;;0.40;;
46731;SDS011;32477;51.474;5.696;2024-03-02T02:55:06;0.25;;;0.22;;
46731;SDS011;32477;51.474;5.696;2024-03-02T02:57:34;2.20;;;0.50;;
46731;SDS011;32477;51.474;5.696;2024-03-02T03:00:04;1.00;;;0.45;;
46731;SDS011;32477;51.474;5.696;2024-03-02T03:02:35;0.57;;;0.30;;
46731;SDS011;32477;51.474;5.696;2024-03-02T03:05:04;1.20;;;0.40;;
46731;SDS011;32477;51.474;5.696;2024-03-02T03:07:33;0.60;;;0.45;;
46731;SDS011;32477;51.474;5.696;2024-03-02T03:09:59;0.50;;;0.47;;
46731;SDS011;32477;51.474;5.696;2024-03-02T03:12:26;0.75;;;0.30;;
46731;SDS011;32477;51.474;5.696;2024-03-02T03:14:51;0.30;;;0.30;;
46731;SDS011;32477;51.474;5.696;2024-03-02T03:17:17;1.17;;;0.50;;
46731;SDS011;32477;51.474;5.696;2024-03-02T03:19:43;0.43;;;0.30;;
46731;SDS011;32477;51.474;5.696;2024-03-02T03:22:08;0.55;;;0.40;;
46731;SDS011;32477;51.474;5.696;2024-03-02T03:24:34;0.30;;;0.30;;
46731;SDS011;32477;51.474;5.696;2024-03-02T03:27:00;1.23;;;0.30;;
46731;SDS011;32477;51.474;5.696;2024-03-02T03:29:25;1.00;;;0.40;;
46731;SDS011;32477;51.474;5.696;2024-03-02T03:31:51;0.20;;;0.20;;
46731;SDS011;32477;51.474;5.696;2024-03-02T03:34:16;0.98;;;0.45;;
46731;SDS011;32477;51.474;5.696;2024-03-02T03:36:42;0.55;;;0.30;;
46731;SDS011;32477;51.474;5.696;2024-03-02T03:39:08;0.43;;;0.30;;
46731;SDS011;32477;51.474;5.696;2024-03-02T03:41:34;1.25;;;0.60;;
46731;SDS011;32477;51.474;5.696;2024-03-02T03:43:59;1.17;;;0.20;;
46731;SDS011;32477;51.474;5.696;2024-03-02T03:46:25;0.28;;;0.28;;
46731;SDS011;32477;51.474;5.696;2024-03-02T03:48:50;1.30;;;0.40;;
46731;SDS011;32477;51.474;5.696;2024-03-02T03:51:16;0.95;;;0.40;;
46731;SDS011;32477;51.474;5.696;2024-03-02T03:53:42;0.28;;;0.28;;
46731;SDS011;32477;51.474;5.696;2024-03-02T03:56:07;0.85;;;0.40;;
46731;SDS011;32477;51.474;5.696;2024-03-02T03:58:33;0.70;;;0.60;;
46731;SDS011;32477;51.474;5.696;2024-03-02T04:00:58;1.75;;;0.57;;
46731;SDS011;32477;51.474;5.696;2024-03-02T04:03:24;0.50;;;0.28;;
46731;SDS011;32477;51.474;5.696;2024-03-02T04:05:50;2.15;;;0.30;;
46731;SDS011;32477;51.474;5.696;2024-03-02T04:08:16;2.08;;;0.30;;
46731;SDS011;32477;51.474;5.696;2024-03-02T04:10:41;0.40;;;0.32;;
46731;SDS011;32477;51.474;5.696;2024-03-02T04:13:07;0.43;;;0.32;;
46731;SDS011;32477;51.474;5.696;2024-03-02T04:15:33;7.32;;;0.57;;
46731;SDS011;32477;51.474;5.696;2024-03-02T04:17:58;0.73;;;0.30;;
46731;SDS011;32477;51.474;5.696;2024-03-02T04:20:24;0.43;;;0.38;;
46731;SDS011;32477;51.474;5.696;2024-03-02T04:22:50;1.52;;;0.60;;
46731;SDS011;32477;51.474;5.696;2024-03-02T04:25:16;2.28;;;0.45;;
46731;SDS011;32477;51.474;5.696;2024-03-02T04:27:41;1.23;;;0.47;;
46731;SDS011;32477;51.474;5.696;2024-03-02T04:30:07;0.50;;;0.28;;
46731;SDS011;32477;51.474;5.696;2024-03-02T04:32:33;0.32;;;0.22;;
46731;SDS011;32477;51.474;5.696;2024-03-02T04:34:59;0.80;;;0.40;;
46731;SDS011;32477;51.474;5.696;2024-03-02T04:37:24;2.03;;;0.50;;
46731;SDS011;32477;51.474;5.696;2024-03-02T04:39:50;1.10;;;0.52;;
46731;SDS011;32477;51.474;5.696;2024-03-02T04:42:15;0.45;;;0.40;;
46731;SDS011;32477;51.474;5.696;2024-03-02T04:44:41;4.25;;;0.50;;
46731;SDS011;32477;51.474;5.696;2024-03-02T04:47:07;0.75;;;0.40;;
46731;SDS011;32477;51.474;5.696;2024-03-02T04:49:32;1.35;;;0.30;;
46731;SDS011;32477;51.474;5.696;2024-03-02T04:51:58;1.40;;;0.50;;
46731;SDS011;32477;51.474;5.696;2024-03-02T04:54:23;0.65;;;0.30;;
46731;SDS011;32477;51.474;5.696;2024-03-02T04:56:49;0.73;;;0.35;;
46731;SDS011;32477;51.474;5.696;2024-03-02T04:59:18;1.13;;;0.40;;
46731;SDS011;32477;51.474;5.696;2024-03-02T05:01:44;0.47;;;0.47;;
46731;SDS011;32477;51.474;5.696;2024-03-02T05:04:11;1.58;;;0.30;;
46731;SDS011;32477;51.474;5.696;2024-03-02T05:06:39;0.20;;;0.20;;
46731;SDS011;32477;51.474;5.696;2024-03-02T05:09:08;2.03;;;0.70;;
46731;SDS011;32477;51.474;5.696;2024-03-02T05:11:34;0.73;;;0.47;;
46731;SDS011;32477;51.474;5.696;2024-03-02T05:14:03;0.20;;;0.20;;
46731;SDS011;32477;51.474;5.696;2024-03-02T05:16:32;0.77;;;0.50;;
46731;SDS011;32477;51.474;5.696;2024-03-02T05:18:59;1.45;;;0.65;;
46731;SDS011;32477;51.474;5.696;2024-03-02T05:21:25;0.40;;;0.40;;
46731;SDS011;32477;51.474;5.696;2024-03-02T05:23:51;3.05;;;0.38;;
46731;SDS011;32477;51.474;5.696;2024-03-02T05:26:16;0.35;;;0.20;;
46731;SDS011;32477;51.474;5.696;2024-03-02T05:28:42;4.80;;;0.40;;
46731;SDS011;32477;51.474;5.696;2024-03-02T05:31:11;0.75;;;0.40;;
46731;SDS011;32477;51.474;5.696;2024-03-02T05:33:39;0.90;;;0.47;;
46731;SDS011;32477;51.474;5.696;2024-03-02T05:36:05;10.05;;;1.45;;
46731;SDS011;32477;51.474;5.696;2024-03-02T05:38:31;0.70;;;0.38;;
46731;SDS011;32477;51.474;5.696;2024-03-02T05:40:57;0.85;;;0.40;;
46731;SDS011;32477;51.474;5.696;2024-03-02T05:43:23;1.80;;;0.50;;
46731;SDS011;32477;51.474;5.696;2024-03-02T05:45:49;0.43;;;0.22;;
46731;SDS011;32477;51.474;5.696;2024-03-02T05:48:14;0.52;;;0.40;;
46731;SDS011;32477;51.474;5.696;2024-03-02T05:50:40;1.52;;;0.57;;
46731;SDS011;32477;51.474;5.696;2024-03-02T05:53:05;1.30;;;0.38;;
46731;SDS011;32477;51.474;5.696;2024-03-02T05:55:31;1.55;;;0.70;;
46731;SDS011;32477;51.474;5.696;2024-03-02T05:57:57;0.73;;;0.57;;
46731;SDS011;32477;51.474;5.696;2024-03-02T06:00:25;2.15;;;0.60;;
46731;SDS011;32477;51.474;5.696;2024-03-02T06:02:51;1.02;;;0.50;;
46731;SDS011;32477;51.474;5.696;2024-03-02T06:05:16;4.95;;;0.63;;
46731;SDS011;32477;51.474;5.696;2024-03-02T06:07:43;5.65;;;0.68;;
46731;SDS011;32477;51.474;5.696;2024-03-02T06:10:09;2.22;;;0.50;;
46731;SDS011;32477;51.474;5.696;2024-03-02T06:12:36;1.70;;;0.73;;
46731;SDS011;32477;51.474;5.696;2024-03-02T06:15:02;0.50;;;0.40;;
46731;SDS011;32477;51.474;5.696;2024-03-02T06:17:28;0.60;;;0.47;;
46731;SDS011;32477;51.474;5.696;2024-03-02T06:19:54;1.15;;;0.43;;
46731;SDS011;32477;51.474;5.696;2024-03-02T06:22:20;3.88;;;0.60;;
46731;SDS011;32477;51.474;5.696;2024-03-02T06:24:47;0.68;;;0.40;;
46731;SDS011;32477;51.474;5.696;2024-03-02T06:27:14;2.45;;;0.65;;
46731;SDS011;32477;51.474;5.696;2024-03-02T06:29:39;1.30;;;0.70;;
46731;SDS011;32477;51.474;5.696;2024-03-02T06:32:05;0.70;;;0.50;;
46731;SDS011;32477;51.474;5.696;2024-03-02T06:34:31;5.43;;;0.80;;
46731;SDS011;32477;51.474;5.696;2024-03-02T06:36:56;1.27;;;0.60;;
46731;SDS011;32477;51.474;5.696;2024-03-02T06:39:22;2.95;;;0.98;;
46731;SDS011;32477;51.474;5.696;2024-03-02T06:41:47;2.47;;;0.98;;
46731;SDS011;32477;51.474;5.696;2024-03-02T06:44:13;2.78;;;0.70;;
46731;SDS011;32477;51.474;5.696;2024-03-02T06:46:38;2.38;;;0.90;;
46731;SDS011;32477;51.474;5.696;2024-03-02T06:49:04;1.67;;;0.77;;
46731;SDS011;32477;51.474;5.696;2024-03-02T06:51:30;5.70;;;0.80;;
46731;SDS011;32477;51.474;5.696;2024-03-02T06:53:55;1.92;;;0.63;;
46731;SDS011;32477;51.474;5.696;2024-03-02T06:56:21;1.23;;;0.80;;
46731;SDS011;32477;51.474;5.696;2024-03-02T06:58:47;1.95;;;0.73;;
46731;SDS011;32477;51.474;5.696;2024-03-02T07:01:13;4.95;;;0.98;;
46731;SDS011;32477;51.474;5.696;2024-03-02T07:03:39;2.35;;;0.65;;
46731;SDS011;32477;51.474;5.696;2024-03-02T07:06:04;1.17;;;0.68;;
46731;SDS011;32477;51.474;5.696;2024-03-02T07:08:30;2.63;;;0.95;;
46731;SDS011;32477;51.474;5.696;2024-03-02T07:10:56;3.35;;;0.80;;
46731;SDS011;32477;51.474;5.696;2024-03-02T07:13:22;3.75;;;0.80;;
46731;SDS011;32477;51.474;5.696;2024-03-02T07:15:48;3.05;;;0.70;;
46731;SDS011;32477;51.474;5.696;2024-03-02T07:18:31;4.53;;;1.02;;
46731;SDS011;32477;51.474;5.696;2024-03-02T07:20:58;2.60;;;0.77;;
46731;SDS011;32477;51.474;5.696;2024-03-02T07:23:26;6.47;;;1.50;;
46731;SDS011;32477;51.474;5.696;2024-03-02T07:25:55;3.55;;;0.75;;
46731;SDS011;32477;51.474;5.696;2024-03-02T07:28:21;3.40;;;0.80;;
46731;SDS011;32477;51.474;5.696;2024-03-02T07:30:57;1.63;;;0.55;;
46731;SDS011;32477;51.474;5.696;2024-03-02T07:33:26;0.88;;;0.57;;
46731;SDS011;32477;51.474;5.696;2024-03-02T07:35:52;1.52;;;0.68;;
46731;SDS011;32477;51.474;5.696;2024-03-02T07:38:19;1.20;;;0.57;;
46731;SDS011;32477;51.474;5.696;2024-03-02T07:40:45;2.65;;;0.70;;
46731;SDS011;32477;51.474;5.696;2024-03-02T07:43:11;1.42;;;0.80;;
46731;SDS011;32477;51.474;5.696;2024-03-02T07:45:36;1.05;;;0.57;;
46731;SDS011;32477;51.474;5.696;2024-03-02T07:48:02;1.10;;;0.47;;
46731;SDS011;32477;51.474;5.696;2024-03-02T07:50:30;2.42;;;0.70;;
46731;SDS011;32477;51.474;5.696;2024-03-02T07:52:56;2.15;;;0.73;;
46731;SDS011;32477;51.474;5.696;2024-03-02T07:55:22;3.50;;;0.70;;
46731;SDS011;32477;51.474;5.696;2024-03-02T07:57:50;5.20;;;0.68;;
46731;SDS011;32477;51.474;5.696;2024-03-02T08:00:15;1.02;;;0.57;;
46731;SDS011;32477;51.474;5.696;2024-03-02T08:02:41;2.08;;;0.88;;
46731;SDS011;32477;51.474;5.696;2024-03-02T08:05:10;2.53;;;0.70;;
46731;SDS011;32477;51.474;5.696;2024-03-02T08:07:35;3.60;;;0.82;;
46731;SDS011;32477;51.474;5.696;2024-03-02T08:10:01;1.75;;;0.70;;
46731;SDS011;32477;51.474;5.696;2024-03-02T08:12:27;1.48;;;0.70;;
46731;SDS011;32477;51.474;5.696;2024-03-02T08:14:52;5.50;;;0.50;;
46731;SDS011;32477;51.474;5.696;2024-03-02T08:17:18;1.08;;;0.40;;
46731;SDS011;32477;51.474;5.696;2024-03-02T08:19:44;4.10;;;0.95;;
46731;SDS011;32477;51.474;5.696;2024-03-02T08:22:09;3.88;;;0.80;;
46731;SDS011;32477;51.474;5.696;2024-03-02T08:24:35;0.93;;;0.50;;
46731;SDS011;32477;51.474;5.696;2024-03-02T08:27:01;4.55;;;0.52;;
46731;SDS011;32477;51.474;5.696;2024-03-02T08:29:27;0.80;;;0.50;;
46731;SDS011;32477;51.474;5.696;2024-03-02T08:31:53;1.48;;;0.55;;
46731;SDS011;32477;51.474;5.696;2024-03-02T08:34:19;2.95;;;0.80;;
46731;SDS011;32477;51.474;5.696;2024-03-02T08:36:45;2.08;;;0.63;;
46731;SDS011;32477;51.474;5.696;2024-03-02T08:39:11;0.80;;;0.38;;
46731;SDS011;32477;51.474;5.696;2024-03-02T08:41:46;3.55;;;1.10;;
46731;SDS011;32477;51.474;5.696;2024-03-02T08:44:13;2.72;;;0.50;;
46731;SDS011;32477;51.474;5.696;2024-03-02T08:46:39;2.15;;;0.70;;
46731;SDS011;32477;51.474;5.696;2024-03-02T08:49:05;2.70;;;1.20;;
46731;SDS011;32477;51.474;5.696;2024-03-02T08:51:31;1.42;;;0.50;;
46731;SDS011;32477;51.474;5.696;2024-03-02T08:53:57;2.13;;;0.63;;
46731;SDS011;32477;51.474;5.696;2024-03-02T08:56:24;2.75;;;0.70;;
46731;SDS011;32477;51.474;5.696;2024-03-02T08:58:50;2.83;;;0.50;;
46731;SDS011;32477;51.474;5.696;2024-03-02T09:01:16;3.80;;;0.88;;
46731;SDS011;32477;51.474;5.696;2024-03-02T09:03:43;4.78;;;0.80;;
46731;SDS011;32477;51.474;5.696;2024-03-02T09:06:12;4.90;;;0.68;;
46731;SDS011;32477;51.474;5.696;2024-03-02T09:08:38;10.00;;;0.95;;
46731;SDS011;32477;51.474;5.696;2024-03-02T09:11:05;8.32;;;0.80;;
46731;SDS011;32477;51.474;5.696;2024-03-02T09:13:32;1.13;;;0.38;;
46731;SDS011;32477;51.474;5.696;2024-03-02T09:15:58;1.98;;;0.57;;
46731;SDS011;32477;51.474;5.696;2024-03-02T09:18:24;2.85;;;0.40;;
46731;SDS011;32477;51.474;5.696;2024-03-02T09:20:49;4.25;;;0.98;;
46731;SDS011;32477;51.474;5.696;2024-03-02T09:23:15;5.15;;;1.20;;
46731;SDS011;32477;51.474;5.696;2024-03-02T09:25:40;3.60;;;0.75;;
46731;SDS011;32477;51.474;5.696;2024-03-02T09:28:06;1.90;;;0.57;;
46731;SDS011;32477;51.474;5.696;2024-03-02T09:30:32;3.22;;;0.77;;
46731;SDS011;32477;51.474;5.696;2024-03-02T09:32:58;5.15;;;0.85;;
46731;SDS011;32477;51.474;5.696;2024-03-02T09:35:24;1.98;;;0.70;;
46731;SDS011;32477;51.474;5.696;2024-03-02T09:37:50;2.35;;;0.52;;
46731;SDS011;32477;51.474;5.696;2024-03-02T09:40:16;2.50;;;0.63;;
46731;SDS011;32477;51.474;5.696;2024-03-02T09:42:41;2.83;;;0.70;;
46731;SDS011;32477;51.474;5.696;2024-03-02T09:45:08;1.65;;;0.60;;
46731;SDS011;32477;51.474;5.696;2024-03-02T09:47:34;1.48;;;0.63;;
46731;SDS011;32477;51.474;5.696;2024-03-02T09:50:00;5.72;;;0.95;;
46731;SDS011;32477;51.474;5.696;2024-03-02T09:52:26;3.88;;;0.70;;
46731;SDS011;32477;51.474;5.696;2024-03-02T09:54:52;2.95;;;0.70;;
46731;SDS011;32477;51.474;5.696;2024-03-02T09:57:18;3.40;;;1.20;;
46731;SDS011;32477;51.474;5.696;2024-03-02T09:59:43;3.97;;;0.90;;
46731;SDS011;32477;51.474;5.696;2024-03-02T10:02:10;2.35;;;0.57;;
46731;SDS011;32477;51.474;5.696;2024-03-02T10:04:36;4.22;;;0.77;;
46731;SDS011;32477;51.474;5.696;2024-03-02T10:07:11;1.83;;;1.00;;
46731;SDS011;32477;51.474;5.696;2024-03-02T10:09:38;6.40;;;0.80;;
46731;SDS011;32477;51.474;5.696;2024-03-02T10:12:05;3.80;;;0.90;;
46731;SDS011;32477;51.474;5.696;2024-03-02T10:14:32;2.95;;;0.73;;
46731;SDS011;32477;51.474;5.696;2024-03-02T10:17:01;4.28;;;1.05;;
46731;SDS011;32477;51.474;5.696;2024-03-02T10:19:28;3.95;;;1.00;;
46731;SDS011;32477;51.474;5.696;2024-03-02T10:21:58;3.72;;;0.98;;
46731;SDS011;32477;51.474;5.696;2024-03-02T10:24:24;2.15;;;0.63;;
46731;SDS011;32477;51.474;5.696;2024-03-02T10:26:51;6.75;;;1.25;;
46731;SDS011;32477;51.474;5.696;2024-03-02T10:29:17;4.80;;;0.98;;
46731;SDS011;32477;51.474;5.696;2024-03-02T10:31:44;2.92;;;1.02;;
46731;SDS011;32477;51.474;5.696;2024-03-02T10:34:13;3.20;;;1.00;;
46731;SDS011;32477;51.474;5.696;2024-03-02T10:36:41;3.47;;;0.95;;
46731;SDS011;32477;51.474;5.696;2024-03-02T10:39:08;6.55;;;1.35;;
46731;SDS011;32477;51.474;5.696;2024-03-02T10:41:38;3.92;;;1.13;;
46731;SDS011;32477;51.474;5.696;2024-03-02T10:44:04;3.75;;;1.33;;
46731;SDS011;32477;51.474;5.696;2024-03-02T10:46:31;3.33;;;1.10;;
46731;SDS011;32477;51.474;5.696;2024-03-02T10:49:01;6.32;;;1.08;;
46731;SDS011;32477;51.474;5.696;2024-03-02T10:51:29;7.65;;;1.63;;
46731;SDS011;32477;51.474;5.696;2024-03-02T10:54:01;4.97;;;0.73;;
46731;SDS011;32477;51.474;5.696;2024-03-02T10:56:32;3.22;;;1.17;;
46731;SDS011;32477;51.474;5.696;2024-03-02T10:59:21;2.97;;;0.57;;
46731;SDS011;32477;51.474;5.696;2024-03-02T11:02:01;7.68;;;1.05;;
46731;SDS011;32477;51.474;5.696;2024-03-02T11:04:28;3.97;;;0.70;;
46731;SDS011;32477;51.474;5.696;2024-03-02T11:06:58;3.03;;;0.63;;
46731;SDS011;32477;51.474;5.696;2024-03-02T11:09:29;0.73;;;0.40;;
46731;SDS011;32477;51.474;5.696;2024-03-02T11:12:31;4.63;;;1.15;;
46731;SDS011;32477;51.474;5.696;2024-03-02T11:15:11;3.65;;;0.88;;
46731;SDS011;32477;51.474;5.696;2024-03-02T11:20:09;3.70;;;0.90;;
46731;SDS011;32477;51.474;5.696;2024-03-02T11:22:35;3.83;;;1.00;;
46731;SDS011;32477;51.474;5.696;2024-03-02T11:25:01;3.05;;;0.80;;
46731;SDS011;32477;51.474;5.696;2024-03-02T11:32:59;2.85;;;0.80;;
46731;SDS011;32477;51.474;5.696;2024-03-02T11:35:25;3.70;;;1.02;;
46731;SDS011;32477;51.474;5.696;2024-03-02T11:37:51;3.78;;;1.20;;
46731;SDS011;32477;51.474;5.696;2024-03-02T11:40:23;3.33;;;1.00;;
46731;SDS011;32477;51.474;5.696;2024-03-02T11:42:50;10.05;;;1.80;;
46731;SDS011;32477;51.474;5.696;2024-03-02T11:45:16;3.53;;;1.27;;
46731;SDS011;32477;51.474;5.696;2024-03-02T11:48:16;2.80;;;1.05;;
46731;SDS011;32477;51.474;5.696;2024-03-02T11:50:41;6.30;;;1.50;;
46731;SDS011;32477;51.474;5.696;2024-03-02T11:55:38;3.50;;;1.05;;
46731;SDS011;32477;51.474;5.696;2024-03-02T11:58:14;5.20;;;1.00;;
46731;SDS011;32477;51.474;5.696;2024-03-02T12:00:45;3.10;;;0.90;;
46731;SDS011;32477;51.474;5.696;2024-03-02T12:03:12;5.32;;;1.33;;
46731;SDS011;32477;51.474;5.696;2024-03-02T12:05:39;3.95;;;1.08;;
46731;SDS011;32477;51.474;5.696;2024-03-02T12:08:07;2.90;;;0.82;;
46731;SDS011;32477;51.474;5.696;2024-03-02T12:10:34;2.08;;;0.82;;
46731;SDS011;32477;51.474;5.696;2024-03-02T12:13:01;3.22;;;0.77;;
46731;SDS011;32477;51.474;5.696;2024-03-02T12:15:29;4.60;;;0.90;;
46731;SDS011;32477;51.474;5.696;2024-03-02T12:17:56;6.70;;;1.05;;
46731;SDS011;32477;51.474;5.696;2024-03-02T12:20:24;1.50;;;0.70;;
46731;SDS011;32477;51.474;5.696;2024-03-02T12:22:54;2.92;;;1.00;;
46731;SDS011;32477;51.474;5.696;2024-03-02T12:25:21;1.40;;;0.80;;
46731;SDS011;32477;51.474;5.696;2024-03-02T12:27:52;7.25;;;1.88;;
46731;SDS011;32477;51.474;5.696;2024-03-02T12:30:20;5.82;;;1.27;;
46731;SDS011;32477;51.474;5.696;2024-03-02T12:32:46;3.33;;;0.63;;
46731;SDS011;32477;51.474;5.696;2024-03-02T12:35:13;1.35;;;0.70;;
46731;SDS011;32477;51.474;5.696;2024-03-02T12:37:45;5.93;;;1.35;;
46731;SDS011;32477;51.474;5.696;2024-03-02T12:40:12;3.50;;;0.95;;
46731;SDS011;32477;51.474;5.696;2024-03-02T12:42:39;4.97;;;0.93;;
46731;SDS011;32477;51.474;5.696;2024-03-02T12:45:07;2.20;;;1.08;;
46731;SDS011;32477;51.474;5.696;2024-03-02T12:47:36;3.58;;;1.40;;
46731;SDS011;32477;51.474;5.696;2024-03-02T12:50:03;5.60;;;1.42;;
46731;SDS011;32477;51.474;5.696;2024-03-02T12:52:30;2.28;;;0.95;;
46731;SDS011;32477;51.474;5.696;2024-03-02T12:54:57;8.10;;;1.40;;
46731;SDS011;32477;51.474;5.696;2024-03-02T12:57:25;4.45;;;0.90;;
46731;SDS011;32477;51.474;5.696;2024-03-02T12:59:52;3.67;;;0.90;;
46731;SDS011;32477;51.474;5.696;2024-03-02T13:02:23;3.42;;;0.90;;
46731;SDS011;32477;51.474;5.696;2024-03-02T13:04:52;4.03;;;0.90;;
46731;SDS011;32477;51.474;5.696;2024-03-02T13:07:19;4.97;;;1.10;;
46731;SDS011;32477;51.474;5.696;2024-03-02T13:09:47;8.35;;;1.02;;
46731;SDS011;32477;51.474;5.696;2024-03-02T13:12:14;3.92;;;0.80;;
46731;SDS011;32477;51.474;5.696;2024-03-02T13:14:41;2.85;;;1.40;;
46731;SDS011;32477;51.474;5.696;2024-03-02T13:17:07;1.98;;;0.90;;
46731;SDS011;32477;51.474;5.696;2024-03-02T13:19:43;3.45;;;1.00;;
46731;SDS011;32477;51.474;5.696;2024-03-02T13:22:20;2.38;;;0.77;;
46731;SDS011;32477;51.474;5.696;2024-03-02T13:24:47;1.73;;;0.77;;
46731;SDS011;32477;51.474;5.696;2024-03-02T13:27:13;4.55;;;0.88;;
46731;SDS011;32477;51.474;5.696;2024-03-02T13:29:38;3.70;;;0.80;;
46731;SDS011;32477;51.474;5.696;2024-03-02T13:32:04;2.60;;;0.80;;
46731;SDS011;32477;51.474;5.696;2024-03-02T13:34:30;3.97;;;0.70;;
46731;SDS011;32477;51.474;5.696;2024-03-02T13:36:56;3.88;;;0.95;;
46731;SDS011;32477;51.474;5.696;2024-03-02T13:39:21;4.80;;;1.33;;
46731;SDS011;32477;51.474;5.696;2024-03-02T13:41:48;2.45;;;0.60;;
46731;SDS011;32477;51.474;5.696;2024-03-02T13:44:20;1.33;;;0.70;;
46731;SDS011;32477;51.474;5.696;2024-03-02T13:46:46;6.00;;;1.23;;
46731;SDS011;32477;51.474;5.696;2024-03-02T13:49:13;7.07;;;1.05;;
46731;SDS011;32477;51.474;5.696;2024-03-02T13:51:39;12.55;;;1.40;;
46731;SDS011;32477;51.474;5.696;2024-03-02T13:54:04;5.18;;;0.80;;
46731;SDS011;32477;51.474;5.696;2024-03-02T13:56:30;2.88;;;0.73;;
46731;SDS011;32477;51.474;5.696;2024-03-02T13:58:57;5.18;;;1.00;;
46731;SDS011;32477;51.474;5.696;2024-03-02T14:01:23;5.32;;;0.80;;
46731;SDS011;32477;51.474;5.696;2024-03-02T14:03:49;4.47;;;0.85;;
46731;SDS011;32477;51.474;5.696;2024-03-02T14:06:15;1.85;;;0.85;;
46731;SDS011;32477;51.474;5.696;2024-03-02T14:08:41;5.07;;;0.80;;
46731;SDS011;32477;51.474;5.696;2024-03-02T14:11:09;2.00;;;0.80;;
46731;SDS011;32477;51.474;5.696;2024-03-02T14:13:39;2.13;;;0.70;;
46731;SDS011;32477;51.474;5.696;2024-03-02T14:16:06;4.10;;;0.80;;
46731;SDS011;32477;51.474;5.696;2024-03-02T14:18:31;3.10;;;0.82;;
46731;SDS011;32477;51.474;5.696;2024-03-02T14:20:57;2.03;;;0.70;;
46731;SDS011;32477;51.474;5.696;2024-03-02T14:23:23;1.15;;;0.60;;
46731;SDS011;32477;51.474;5.696;2024-03-02T14:25:50;2.38;;;0.80;;
46731;SDS011;32477;51.474;5.696;2024-03-02T14:28:16;3.75;;;0.88;;
46731;SDS011;32477;51.474;5.696;2024-03-02T14:30:42;2.53;;;0.55;;
46731;SDS011;32477;51.474;5.696;2024-03-02T14:33:07;2.95;;;0.73;;
46731;SDS011;32477;51.474;5.696;2024-03-02T14:35:33;3.80;;;0.80;;
46731;SDS011;32477;51.474;5.696;2024-03-02T14:37:59;5.00;;;1.20;;
46731;SDS011;32477;51.474;5.696;2024-03-02T14:40:24;5.97;;;1.60;;
46731;SDS011;32477;51.474;5.696;2024-03-02T14:42:52;2.15;;;0.93;;
46731;SDS011;32477;51.474;5.696;2024-03-02T14:45:18;1.80;;;1.02;;
46731;SDS011;32477;51.474;5.696;2024-03-02T14:47:43;3.10;;;0.88;;
46731;SDS011;32477;51.474;5.696;2024-03-02T14:50:09;3.00;;;0.70;;
46731;SDS011;32477;51.474;5.696;2024-03-02T14:52:36;3.28;;;0.57;;
46731;SDS011;32477;51.474;5.696;2024-03-02T14:55:01;3.58;;;0.73;;
46731;SDS011;32477;51.474;5.696;2024-03-02T14:57:32;2.38;;;0.68;;
46731;SDS011;32477;51.474;5.696;2024-03-02T14:59:58;2.00;;;0.70;;
46731;SDS011;32477;51.474;5.696;2024-03-02T15:02:23;1.83;;;1.10;;
46731;SDS011;32477;51.474;5.696;2024-03-02T15:04:49;2.72;;;0.95;;
46731;SDS011;32477;51.474;5.696;2024-03-02T15:07:15;1.33;;;0.50;;